createdAt,value
2017-11-17T00:00:59.546Z,96.6
2017-11-17T00:02:00.947Z,97.1
2017-11-17T00:03:02.344Z,97.1
2017-11-17T00:04:03.750Z,96.9
2017-11-17T00:05:05.145Z,97.1
2017-11-17T00:06:06.542Z,97.0
2017-11-17T00:07:07.945Z,97.0
2017-11-17T00:08:09.342Z,96.8
2017-11-17T00:09:10.759Z,97.1
2017-11-17T00:10:12.146Z,96.9
2017-11-17T00:11:13.546Z,97.1
2017-11-17T00:12:14.949Z,96.9
2017-11-17T00:13:16.343Z,97.0
2017-11-17T00:14:17.749Z,97.3
2017-11-17T00:15:19.150Z,97.0
2017-11-17T00:16:20.564Z,97.3
2017-11-17T00:17:21.970Z,97.0
2017-11-17T00:18:23.366Z,97.5
2017-11-17T00:19:24.774Z,97.3
2017-11-17T00:20:26.181Z,97.1
2017-11-17T00:21:27.588Z,97.0
2017-11-17T00:22:28.989Z,97.3
2017-11-17T00:23:30.392Z,97.0
2017-11-17T00:24:31.787Z,97.4
2017-11-17T00:25:33.186Z,97.2
2017-11-17T00:26:34.608Z,97.1
2017-11-17T00:27:36.004Z,97.3
2017-11-17T00:28:37.403Z,97.3
2017-11-17T00:29:38.802Z,97.3
2017-11-17T00:30:40.209Z,97.0
2017-11-17T00:31:41.618Z,97.2
2017-11-17T00:32:43.022Z,97.1
2017-11-17T00:33:44.435Z,97.5
2017-11-17T00:34:45.829Z,97.7
2017-11-17T00:35:47.247Z,97.4
2017-11-17T00:36:48.651Z,97.2
2017-11-17T00:37:50.053Z,97.8
2017-11-17T00:38:51.450Z,97.5
2017-11-17T00:39:52.858Z,97.7
2017-11-17T00:40:54.247Z,97.7
2017-11-17T00:41:55.657Z,97.5
2017-11-17T00:42:57.064Z,97.3
2017-11-17T00:43:58.473Z,97.7
2017-11-17T00:44:59.871Z,97.5
2017-11-17T00:46:01.272Z,97.5
2017-11-17T00:47:02.664Z,97.5
2017-11-17T00:48:04.080Z,97.7
2017-11-17T00:49:05.482Z,97.5
2017-11-17T00:50:06.887Z,97.5
2017-11-17T00:51:08.288Z,97.3
2017-11-17T00:52:09.682Z,97.2
2017-11-17T00:53:11.086Z,97.4
2017-11-17T00:54:12.486Z,97.1
2017-11-17T00:55:13.876Z,97.1
2017-11-17T00:56:15.273Z,97.1
2017-11-17T00:57:16.681Z,97.3
2017-11-17T00:58:18.079Z,97.6
2017-11-17T00:59:19.478Z,97.7
2017-11-17T01:00:20.869Z,97.2
2017-11-17T01:01:22.267Z,97.2
2017-11-17T01:02:23.669Z,97.7
2017-11-17T01:03:25.072Z,97.7
2017-11-17T01:04:26.471Z,97.3
2017-11-17T01:05:27.869Z,97.5
2017-11-17T01:06:29.276Z,97.2
2017-11-17T01:07:30.665Z,97.5
2017-11-17T01:08:32.060Z,97.7
2017-11-17T01:09:33.459Z,97.7
2017-11-17T01:10:34.862Z,97.7
2017-11-17T01:11:36.265Z,97.7
2017-11-17T01:12:37.673Z,97.6
2017-11-17T01:13:39.062Z,97.3
2017-11-17T01:14:40.459Z,97.2
2017-11-17T01:15:41.853Z,97.3
2017-11-17T01:16:43.248Z,97.3
2017-11-17T01:17:44.643Z,97.4
2017-11-17T01:18:46.049Z,97.5
2017-11-17T01:19:47.446Z,97.8
2017-11-17T01:20:48.862Z,97.3
2017-11-17T01:21:50.256Z,97.7
2017-11-17T01:22:51.657Z,97.4
2017-11-17T01:23:53.056Z,97.7
2017-11-17T01:24:54.455Z,97.7
2017-11-17T01:25:55.847Z,97.2
2017-11-17T01:26:57.248Z,97.3
2017-11-17T01:27:58.640Z,97.5
2017-11-17T01:29:00.032Z,97.2
2017-11-17T01:30:01.437Z,97.6
2017-11-17T01:31:02.830Z,97.8
2017-11-17T01:32:04.228Z,97.5
2017-11-17T01:33:05.629Z,97.5
2017-11-17T01:34:07.028Z,97.7
2017-11-17T01:35:08.416Z,97.7
2017-11-17T01:36:09.817Z,97.7
2017-11-17T01:37:11.218Z,97.7
2017-11-17T01:38:12.615Z,97.5
2017-11-17T01:39:14.020Z,97.7
2017-11-17T01:40:15.419Z,97.5
2017-11-17T01:41:16.815Z,97.1
2017-11-17T01:42:18.215Z,97.0
2017-11-17T01:43:19.612Z,97.6
2017-11-17T01:44:21.012Z,97.5
2017-11-17T01:45:22.407Z,97.6
2017-11-17T01:46:23.814Z,97.4
2017-11-17T01:47:25.211Z,97.5
2017-11-17T01:48:26.608Z,97.3
2017-11-17T01:49:28.006Z,97.3
2017-11-17T01:50:29.397Z,97.3
2017-11-17T01:51:30.799Z,97.3
2017-11-17T01:52:32.203Z,97.2
2017-11-17T01:53:33.610Z,97.1
2017-11-17T01:54:35.004Z,96.8
2017-11-17T01:55:36.401Z,97.1
2017-11-17T01:56:37.801Z,97.2
2017-11-17T01:57:39.188Z,96.9
2017-11-17T01:58:40.586Z,97.1
2017-11-17T01:59:41.979Z,97.4
2017-11-17T02:00:43.381Z,97.4
2017-11-17T02:01:44.800Z,97.2
2017-11-17T02:02:46.194Z,97.1
2017-11-17T02:03:47.603Z,97.3
2017-11-17T02:04:49.370Z,97.3
2017-11-17T02:05:50.769Z,97.1
2017-11-17T02:06:52.170Z,97.3
2017-11-17T02:07:53.563Z,97.3
2017-11-17T02:08:54.968Z,97.0
2017-11-17T02:09:56.366Z,97.2
2017-11-17T02:10:57.768Z,97.2
2017-11-17T02:11:59.158Z,96.9
2017-11-17T02:13:00.556Z,97.0
2017-11-17T02:14:01.961Z,97.2
2017-11-17T02:15:03.375Z,97.2
2017-11-17T02:16:04.776Z,96.8
2017-11-17T02:17:06.194Z,97.2
2017-11-17T02:18:07.606Z,97.2
2017-11-17T02:19:09.008Z,97.4
2017-11-17T02:20:10.406Z,97.1
2017-11-17T02:21:11.800Z,97.2
2017-11-17T02:22:13.199Z,96.9
2017-11-17T02:23:14.607Z,97.1
2017-11-17T02:24:16.008Z,96.9
2017-11-17T02:25:17.412Z,97.2
2017-11-17T02:26:18.811Z,97.2
2017-11-17T02:27:20.205Z,96.9
2017-11-17T02:28:21.603Z,97.2
2017-11-17T02:29:22.996Z,97.2
2017-11-17T02:30:24.404Z,97.2
2017-11-17T02:31:25.792Z,97.0
2017-11-17T02:32:27.188Z,97.4
2017-11-17T02:33:28.587Z,97.3
2017-11-17T02:34:29.982Z,97.0
2017-11-17T02:35:31.387Z,97.2
2017-11-17T02:36:32.789Z,97.2
2017-11-17T02:37:34.198Z,97.4
2017-11-17T02:38:35.598Z,97.2
2017-11-17T02:39:37.000Z,97.1
2017-11-17T02:40:38.394Z,97.2
2017-11-17T02:41:39.790Z,97.4
2017-11-17T02:42:41.189Z,97.2
2017-11-17T02:43:42.584Z,97.2
2017-11-17T02:44:43.992Z,97.2
2017-11-17T02:45:45.408Z,97.0
2017-11-17T02:46:46.810Z,97.0
2017-11-17T02:47:48.209Z,97.4
2017-11-17T02:48:49.607Z,97.3
2017-11-17T02:49:51.002Z,97.4
2017-11-17T02:50:52.395Z,97.4
2017-11-17T02:51:53.792Z,97.7
2017-11-17T02:52:55.192Z,97.5
2017-11-17T02:53:56.609Z,98.2
2017-11-17T02:54:58.007Z,98.4
2017-11-17T02:55:59.400Z,98.2
2017-11-17T02:57:00.797Z,98.2
2017-11-17T02:58:02.193Z,98.2
2017-11-17T02:59:03.590Z,98.0
2017-11-17T03:00:05.002Z,98.1
2017-11-17T03:01:06.403Z,98.0
2017-11-17T03:02:07.805Z,97.9
2017-11-17T03:03:09.220Z,98.0
2017-11-17T03:04:10.602Z,97.9
2017-11-17T03:05:11.995Z,98.0
2017-11-17T03:06:13.403Z,98.0
2017-11-17T03:07:14.798Z,98.0
2017-11-17T03:08:16.200Z,98.1
2017-11-17T03:09:17.593Z,98.1
2017-11-17T03:10:18.990Z,98.3
2017-11-17T03:11:20.392Z,98.1
2017-11-17T03:12:21.783Z,98.1
2017-11-17T03:13:23.185Z,98.1
2017-11-17T03:14:24.578Z,98.0
2017-11-17T03:15:25.982Z,98.0
2017-11-17T03:16:27.376Z,98.1
2017-11-17T03:17:28.775Z,98.3
2017-11-17T03:18:30.194Z,98.2
2017-11-17T03:19:31.593Z,98.1
2017-11-17T03:20:32.986Z,97.9
2017-11-17T03:21:34.385Z,98.1
2017-11-17T03:22:35.778Z,98.1
2017-11-17T03:23:37.172Z,97.5
2017-11-17T03:24:38.572Z,98.0
2017-11-17T03:25:39.981Z,98.0
2017-11-17T03:26:41.659Z,97.7
2017-11-17T03:27:43.054Z,97.6
2017-11-17T03:28:44.488Z,98.0
2017-11-17T03:29:45.848Z,97.9
2017-11-17T03:30:47.272Z,97.3
2017-11-17T03:31:48.663Z,97.4
2017-11-17T03:32:50.062Z,97.5
2017-11-17T03:33:51.470Z,97.6
2017-11-17T03:34:52.861Z,97.2
2017-11-17T03:35:54.265Z,97.3
2017-11-17T03:36:55.668Z,97.4
2017-11-17T03:37:57.071Z,97.6
2017-11-17T03:38:58.464Z,97.6
2017-11-17T03:39:59.857Z,97.6
2017-11-17T03:41:01.254Z,97.6
2017-11-17T03:42:02.650Z,97.7
2017-11-17T03:43:04.059Z,97.3
2017-11-17T03:44:05.462Z,97.6
2017-11-17T03:45:06.854Z,97.6
2017-11-17T03:46:08.246Z,97.2
2017-11-17T03:47:09.640Z,97.2
2017-11-17T03:48:11.032Z,96.9
2017-11-17T03:49:12.442Z,97.2
2017-11-17T03:50:13.836Z,97.2
2017-11-17T03:51:15.249Z,97.4
2017-11-17T03:52:16.642Z,97.4
2017-11-17T03:53:18.049Z,97.4
2017-11-17T03:54:19.459Z,97.4
2017-11-17T03:55:20.867Z,97.1
2017-11-17T03:56:22.274Z,96.9
2017-11-17T03:57:23.669Z,97.0
2017-11-17T03:58:25.074Z,96.5
2017-11-17T03:59:26.464Z,96.5
2017-11-17T04:00:27.877Z,96.8
2017-11-17T04:01:29.263Z,96.8
2017-11-17T04:02:30.678Z,96.5
2017-11-17T04:03:32.058Z,97.0
2017-11-17T04:04:33.455Z,96.7
2017-11-17T04:05:34.855Z,96.7
2017-11-17T04:06:36.253Z,96.2
2017-11-17T04:07:37.659Z,96.1
2017-11-17T04:08:39.079Z,96.5
2017-11-17T04:09:40.460Z,96.4
2017-11-17T04:10:41.857Z,96.5
2017-11-17T04:11:43.249Z,96.8
2017-11-17T04:12:44.648Z,96.7
2017-11-17T04:13:46.047Z,96.4
2017-11-17T04:14:47.450Z,96.2
2017-11-17T04:15:48.835Z,95.9
2017-11-17T04:16:50.235Z,95.8
2017-11-17T04:17:51.628Z,95.9
2017-11-17T04:18:53.040Z,95.9
2017-11-17T04:19:54.455Z,95.9
2017-11-17T04:20:55.839Z,95.9
2017-11-17T04:21:57.233Z,96.0
2017-11-17T04:22:58.628Z,95.8
2017-11-17T04:24:00.052Z,95.7
2017-11-17T04:25:01.447Z,95.8
2017-11-17T04:26:02.843Z,95.9
2017-11-17T04:27:04.238Z,95.7
2017-11-17T04:28:05.632Z,95.9
2017-11-17T04:29:07.028Z,95.7
2017-11-17T04:30:08.420Z,95.6
2017-11-17T04:31:09.819Z,95.5
2017-11-17T04:32:11.211Z,95.8
2017-11-17T04:33:12.605Z,95.4
2017-11-17T04:34:14.001Z,95.3
2017-11-17T04:35:15.394Z,95.4
2017-11-17T04:36:16.803Z,95.4
2017-11-17T04:37:18.196Z,95.6
2017-11-17T04:38:19.594Z,95.4
2017-11-17T04:39:21.024Z,94.9
2017-11-17T04:40:22.425Z,95.0
2017-11-17T04:41:23.820Z,94.7
2017-11-17T04:42:25.217Z,95.0
2017-11-17T04:43:26.610Z,94.9
2017-11-17T04:44:28.006Z,94.9
2017-11-17T04:45:29.408Z,95.2
2017-11-17T04:46:30.802Z,95.2
2017-11-17T04:47:32.205Z,95.1
2017-11-17T04:48:33.598Z,94.9
2017-11-17T04:49:34.990Z,94.9
2017-11-17T04:50:36.391Z,95.0
2017-11-17T04:51:37.790Z,94.9
2017-11-17T04:52:39.184Z,95.1
2017-11-17T04:53:40.604Z,95.1
2017-11-17T04:54:41.988Z,95.1
2017-11-17T04:55:43.397Z,95.1
2017-11-17T04:56:44.792Z,95.1
2017-11-17T04:57:46.181Z,95.1
2017-11-17T04:58:47.574Z,95.0
2017-11-17T04:59:48.986Z,95.2
2017-11-17T05:00:50.365Z,95.3
2017-11-17T05:01:51.767Z,95.2
2017-11-17T05:02:53.165Z,95.1
2017-11-17T05:03:54.559Z,94.8
2017-11-17T05:04:56.038Z,94.7
2017-11-17T05:05:57.437Z,94.8
2017-11-17T05:06:58.862Z,94.8
2017-11-17T05:08:00.265Z,94.5
2017-11-17T05:09:01.664Z,94.6
2017-11-17T05:10:03.087Z,94.8
2017-11-17T05:11:04.486Z,94.6
2017-11-17T05:12:05.882Z,94.5
2017-11-17T05:13:07.289Z,94.8
2017-11-17T05:14:08.681Z,94.8
2017-11-17T05:15:10.081Z,94.6
2017-11-17T05:16:11.484Z,94.4
2017-11-17T05:17:12.883Z,94.5
2017-11-17T05:18:14.275Z,94.1
2017-11-17T05:19:15.666Z,94.2
2017-11-17T05:20:17.063Z,94.1
2017-11-17T05:21:18.469Z,94.3
2017-11-17T05:22:19.863Z,94.3
2017-11-17T05:23:21.279Z,94.1
2017-11-17T05:24:22.676Z,94.3
2017-11-17T05:25:24.068Z,94.5
2017-11-17T05:26:25.458Z,94.5
2017-11-17T05:27:26.860Z,94.3
2017-11-17T05:28:28.261Z,94.2
2017-11-17T05:29:29.656Z,94.2
2017-11-17T05:30:31.074Z,94.2
2017-11-17T05:31:32.455Z,94.2
2017-11-17T05:32:33.852Z,94.3
2017-11-17T05:33:35.254Z,94.3
2017-11-17T05:34:36.644Z,94.1
2017-11-17T05:35:38.037Z,94.3
2017-11-17T05:36:39.434Z,94.4
2017-11-17T05:37:40.841Z,94.2
2017-11-17T05:38:42.222Z,94.2
2017-11-17T05:39:43.631Z,94.3
2017-11-17T05:40:45.030Z,94.3
2017-11-17T05:41:46.455Z,94.5
2017-11-17T05:42:47.970Z,94.5
2017-11-17T05:43:49.370Z,94.5
2017-11-17T05:44:50.777Z,94.4
2017-11-17T05:45:52.170Z,94.6
2017-11-17T05:46:53.583Z,94.2
2017-11-17T05:47:54.977Z,94.2
2017-11-17T05:48:56.734Z,94.2
2017-11-17T05:49:58.141Z,94.0
2017-11-17T05:50:59.534Z,94.1
2017-11-17T05:52:00.956Z,94.0
2017-11-17T05:53:02.353Z,94.2
2017-11-17T05:54:03.750Z,94.3
2017-11-17T05:55:05.141Z,94.5
2017-11-17T05:56:06.536Z,94.6
2017-11-17T05:57:07.927Z,94.6
2017-11-17T05:58:09.331Z,94.6
2017-11-17T05:59:10.725Z,94.7
2017-11-17T06:00:12.122Z,94.7
2017-11-17T06:01:13.665Z,94.6
2017-11-17T06:02:15.068Z,94.7
2017-11-17T06:03:16.719Z,94.6
2017-11-17T06:04:18.111Z,94.6
2017-11-17T06:05:19.503Z,94.2
2017-11-17T06:06:20.897Z,94.1
2017-11-17T06:07:22.322Z,94.1
2017-11-17T06:08:23.745Z,94.3
2017-11-17T06:09:25.102Z,94.4
2017-11-17T06:10:26.526Z,94.3
2017-11-17T06:11:27.900Z,94.4
2017-11-17T06:12:29.294Z,94.6
2017-11-17T06:13:30.708Z,94.1
2017-11-17T06:14:32.112Z,94.5
2017-11-17T06:15:33.512Z,94.5
2017-11-17T06:16:34.913Z,94.3
2017-11-17T06:17:36.311Z,94.2
2017-11-17T06:18:37.703Z,94.4
2017-11-17T06:19:39.105Z,94.2
2017-11-17T06:20:40.501Z,94.2
2017-11-17T06:21:41.913Z,94.0
2017-11-17T06:22:43.313Z,94.3
2017-11-17T06:23:44.713Z,94.3
2017-11-17T06:24:46.115Z,94.1
2017-11-17T06:25:47.524Z,94.4
2017-11-17T06:26:48.936Z,94.0
2017-11-17T06:27:50.331Z,94.1
2017-11-17T06:28:51.731Z,94.1
2017-11-17T06:29:53.117Z,94.2
2017-11-17T06:30:54.524Z,94.1
2017-11-17T06:31:55.909Z,94.3
2017-11-17T06:32:57.309Z,94.3
2017-11-17T06:33:58.783Z,94.2
2017-11-17T06:35:00.234Z,94.3
2017-11-17T06:36:01.628Z,94.1
2017-11-17T06:37:03.048Z,94.4
2017-11-17T06:38:04.445Z,94.2
2017-11-17T06:39:05.852Z,94.1
2017-11-17T06:40:07.241Z,94.1
2017-11-17T06:41:08.634Z,94.3
2017-11-17T06:42:10.030Z,94.2
2017-11-17T06:43:11.426Z,94.3
2017-11-17T06:44:12.829Z,94.5
2017-11-17T06:45:14.221Z,94.5
2017-11-17T06:46:15.641Z,94.4
2017-11-17T06:47:17.067Z,94.3
2017-11-17T06:48:18.446Z,94.3
2017-11-17T06:49:20.008Z,94.0
2017-11-17T06:50:21.400Z,94.1
2017-11-17T06:51:22.794Z,94.1
2017-11-17T06:52:24.189Z,94.1
2017-11-17T06:53:25.585Z,94.5
2017-11-17T06:54:26.999Z,94.0
2017-11-17T06:55:28.393Z,94.1
2017-11-17T06:56:29.820Z,94.3
2017-11-17T06:57:31.240Z,93.9
2017-11-17T06:58:32.634Z,94.0
2017-11-17T06:59:34.056Z,94.1
2017-11-17T07:00:35.455Z,94.3
2017-11-17T07:01:36.847Z,94.1
2017-11-17T07:02:38.283Z,94.1
2017-11-17T07:03:39.680Z,94.2
2017-11-17T07:04:41.073Z,94.0
2017-11-17T07:05:42.469Z,94.0
2017-11-17T07:06:43.877Z,94.0
2017-11-17T07:07:45.275Z,94.1
2017-11-17T07:08:46.671Z,94.2
2017-11-17T07:09:48.109Z,94.4
2017-11-17T07:10:49.718Z,94.2
2017-11-17T07:11:51.129Z,93.9
2017-11-17T07:12:52.521Z,94.0
2017-11-17T07:13:53.956Z,94.0
2017-11-17T07:14:55.365Z,94.3
2017-11-17T07:15:56.765Z,94.2
2017-11-17T07:16:58.163Z,94.3
2017-11-17T07:17:59.565Z,94.1
2017-11-17T07:19:00.967Z,94.4
2017-11-17T07:20:02.363Z,94.5
2017-11-17T07:21:03.762Z,94.5
2017-11-17T07:22:05.151Z,94.7
2017-11-17T07:23:06.548Z,94.6
2017-11-17T07:24:08.004Z,94.4
2017-11-17T07:25:09.401Z,94.5
2017-11-17T07:26:10.839Z,94.6
2017-11-17T07:27:12.252Z,94.8
2017-11-17T07:28:13.657Z,94.6
2017-11-17T07:29:15.109Z,94.5
2017-11-17T07:30:16.505Z,94.8
2017-11-17T07:31:17.905Z,94.6
2017-11-17T07:32:19.300Z,94.7
2017-11-17T07:33:20.699Z,94.9
2017-11-17T07:34:22.106Z,94.8
2017-11-17T07:35:23.504Z,94.5
2017-11-17T07:36:24.902Z,94.6
2017-11-17T07:37:26.305Z,94.6
2017-11-17T07:38:27.710Z,94.4
2017-11-17T07:39:29.108Z,94.6
2017-11-17T07:40:30.505Z,94.7
2017-11-17T07:41:31.911Z,94.4
2017-11-17T07:42:33.317Z,95.0
2017-11-17T07:43:34.712Z,94.6
2017-11-17T07:44:36.113Z,94.7
2017-11-17T07:45:37.574Z,94.6
2017-11-17T07:46:38.973Z,94.8
2017-11-17T07:47:40.370Z,95.2
2017-11-17T07:48:41.768Z,94.7
2017-11-17T07:49:43.178Z,95.2
2017-11-17T07:50:44.574Z,94.8
2017-11-17T07:51:45.965Z,94.6
2017-11-17T07:52:47.369Z,94.6
2017-11-17T07:53:48.776Z,94.7
2017-11-17T07:54:50.174Z,94.6
2017-11-17T07:55:51.572Z,94.8
2017-11-17T07:56:52.971Z,94.6
2017-11-17T07:57:54.364Z,94.4
2017-11-17T07:58:55.770Z,94.6
2017-11-17T07:59:57.171Z,94.7
2017-11-17T08:00:58.588Z,94.6
2017-11-17T08:01:59.989Z,94.5
2017-11-17T08:03:01.402Z,94.4
2017-11-17T08:04:02.778Z,94.2
2017-11-17T08:05:04.177Z,94.6
2017-11-17T08:06:05.591Z,94.6
2017-11-17T08:07:06.988Z,94.7
2017-11-17T08:08:08.406Z,94.4
2017-11-17T08:09:09.804Z,94.2
2017-11-17T08:10:11.228Z,94.2
2017-11-17T08:11:12.622Z,94.5
2017-11-17T08:12:14.026Z,94.4
2017-11-17T08:13:15.438Z,94.3
2017-11-17T08:14:16.834Z,94.6
2017-11-17T08:15:18.230Z,94.2
2017-11-17T08:16:19.629Z,94.3
2017-11-17T08:17:21.027Z,94.1
2017-11-17T08:18:22.424Z,94.3
2017-11-17T08:19:23.825Z,94.1
2017-11-17T08:20:25.218Z,94.5
2017-11-17T08:21:26.616Z,94.3
2017-11-17T08:22:28.054Z,94.5
2017-11-17T08:23:29.549Z,94.5
2017-11-17T08:24:31.434Z,94.5
2017-11-17T08:25:32.848Z,94.0
2017-11-17T08:26:34.255Z,94.1
2017-11-17T08:27:35.641Z,94.5
2017-11-17T08:28:37.085Z,94.1
2017-11-17T08:29:38.482Z,94.3
2017-11-17T08:30:39.885Z,94.4
2017-11-17T08:31:41.280Z,94.1
2017-11-17T08:32:42.683Z,94.0
2017-11-17T08:33:44.079Z,94.3
2017-11-17T08:34:45.476Z,94.1
2017-11-17T08:35:46.871Z,94.1
2017-11-17T08:36:48.283Z,94.1
2017-11-17T08:37:49.686Z,94.0
2017-11-17T08:38:51.079Z,93.9
2017-11-17T08:39:52.472Z,94.4
2017-11-17T08:40:53.889Z,94.1
2017-11-17T08:41:55.288Z,94.1
2017-11-17T08:42:56.688Z,94.1
2017-11-17T08:43:58.082Z,94.3
2017-11-17T08:44:59.480Z,94.2
2017-11-17T08:46:00.878Z,94.0
2017-11-17T08:47:02.270Z,94.1
2017-11-17T08:48:03.668Z,94.3
2017-11-17T08:49:05.065Z,93.8
2017-11-17T08:50:06.461Z,94.4
2017-11-17T08:51:07.860Z,94.4
2017-11-17T08:52:09.258Z,93.6
2017-11-17T08:53:10.651Z,93.9
2017-11-17T08:54:12.048Z,93.5
2017-11-17T08:55:13.437Z,94.0
2017-11-17T08:56:14.834Z,94.0
2017-11-17T08:57:16.236Z,94.0
2017-11-17T08:58:17.654Z,93.9
2017-11-17T08:59:19.056Z,93.5
2017-11-17T09:00:20.452Z,93.1
2017-11-17T09:01:21.851Z,93.0
2017-11-17T09:02:23.253Z,93.1
2017-11-17T09:03:24.657Z,93.1
2017-11-17T09:04:26.050Z,93.1
2017-11-17T09:05:27.462Z,93.7
2017-11-17T09:06:28.860Z,93.5
2017-11-17T09:07:30.259Z,93.5
2017-11-17T09:08:31.659Z,93.5
2017-11-17T09:09:33.056Z,93.1
2017-11-17T09:10:34.457Z,93.3
2017-11-17T09:11:35.850Z,93.1
2017-11-17T09:12:37.245Z,92.9
2017-11-17T09:13:38.652Z,93.0
2017-11-17T09:14:40.057Z,93.0
2017-11-17T09:15:41.456Z,93.1
2017-11-17T09:16:42.852Z,92.9
2017-11-17T09:17:44.250Z,92.9
2017-11-17T09:18:45.644Z,93.0
2017-11-17T09:19:47.041Z,92.8
2017-11-17T09:20:48.444Z,92.6
2017-11-17T09:21:49.839Z,93.1
2017-11-17T09:22:51.232Z,92.7
2017-11-17T09:23:52.627Z,92.9
2017-11-17T09:24:54.021Z,92.7
2017-11-17T09:25:55.430Z,92.8
2017-11-17T09:26:56.819Z,92.5
2017-11-17T09:27:58.219Z,92.2
2017-11-17T09:28:59.616Z,92.1
2017-11-17T09:30:01.011Z,92.1
2017-11-17T09:31:02.413Z,91.8
2017-11-17T09:32:03.822Z,92.0
2017-11-17T09:33:05.220Z,92.0
2017-11-17T09:34:06.617Z,92.0
2017-11-17T09:35:08.010Z,91.7
2017-11-17T09:36:09.409Z,91.9
2017-11-17T09:37:10.829Z,91.7
2017-11-17T09:38:12.224Z,91.6
2017-11-17T09:39:13.831Z,91.7
2017-11-17T09:40:15.260Z,91.6
2017-11-17T09:41:16.658Z,92.1
2017-11-17T09:42:18.051Z,91.2
2017-11-17T09:43:19.453Z,91.6
2017-11-17T09:44:20.849Z,91.2
2017-11-17T09:45:22.250Z,91.6
2017-11-17T09:46:23.663Z,91.6
2017-11-17T09:47:25.065Z,91.1
2017-11-17T09:48:26.465Z,91.1
2017-11-17T09:49:27.864Z,90.9
2017-11-17T09:50:29.261Z,90.9
2017-11-17T09:51:30.674Z,90.7
2017-11-17T09:52:32.059Z,90.7
2017-11-17T09:53:33.467Z,90.6
2017-11-17T09:54:34.862Z,90.3
2017-11-17T09:55:36.266Z,90.0
2017-11-17T09:56:37.664Z,90.1
2017-11-17T09:57:39.057Z,90.0
2017-11-17T09:58:40.455Z,90.1
2017-11-17T09:59:41.856Z,89.8
2017-11-17T10:00:43.243Z,89.8
2017-11-17T10:01:44.642Z,89.6
2017-11-17T10:02:46.035Z,89.1
2017-11-17T10:03:47.439Z,89.4
2017-11-17T10:04:48.842Z,89.5
2017-11-17T10:05:50.243Z,89.3
2017-11-17T10:06:51.647Z,89.2
2017-11-17T10:07:53.114Z,89.3
2017-11-17T10:08:54.505Z,88.8
2017-11-17T10:09:55.901Z,88.8
2017-11-17T10:10:57.366Z,89.0
2017-11-17T10:11:58.764Z,88.9
2017-11-17T10:13:00.159Z,88.8
2017-11-17T10:14:01.585Z,88.5
2017-11-17T10:15:02.966Z,88.6
2017-11-17T10:16:04.365Z,88.6
2017-11-17T10:17:05.762Z,88.7
2017-11-17T10:18:07.156Z,88.6
2017-11-17T10:19:08.555Z,88.7
2017-11-17T10:20:09.960Z,88.4
2017-11-17T10:21:11.355Z,88.5
2017-11-17T10:22:12.754Z,88.4
2017-11-17T10:23:14.152Z,88.4
2017-11-17T10:24:15.549Z,88.6
2017-11-17T10:25:17.025Z,88.1
2017-11-17T10:26:18.424Z,88.4
2017-11-17T10:27:19.825Z,88.2
2017-11-17T10:28:21.232Z,88.2
2017-11-17T10:29:22.643Z,88.4
2017-11-17T10:30:24.028Z,88.4
2017-11-17T10:31:25.432Z,88.0
2017-11-17T10:32:26.832Z,87.9
2017-11-17T10:33:28.243Z,88.1
2017-11-17T10:34:29.638Z,87.9
2017-11-17T10:35:31.066Z,87.4
2017-11-17T10:36:32.464Z,88.0
2017-11-17T10:37:33.864Z,88.0
2017-11-17T10:38:35.264Z,87.4
2017-11-17T10:39:36.667Z,87.7
2017-11-17T10:40:38.066Z,87.6
2017-11-17T10:41:39.461Z,87.5
2017-11-17T10:42:40.864Z,87.6
2017-11-17T10:43:42.270Z,87.2
2017-11-17T10:44:43.669Z,87.4
2017-11-17T10:45:45.100Z,86.6
2017-11-17T10:46:46.473Z,86.7
2017-11-17T10:47:47.876Z,86.6
2017-11-17T10:48:49.304Z,86.6
2017-11-17T10:49:50.707Z,86.8
2017-11-17T10:50:52.106Z,86.3
2017-11-17T10:51:53.579Z,86.4
2017-11-17T10:52:54.968Z,86.4
2017-11-17T10:53:56.393Z,86.4
2017-11-17T10:54:57.784Z,85.7
2017-11-17T10:55:59.180Z,85.9
2017-11-17T10:57:00.578Z,85.7
2017-11-17T10:58:02.003Z,85.8
2017-11-17T10:59:03.429Z,86.2
2017-11-17T11:00:04.827Z,85.5
2017-11-17T11:01:06.239Z,85.3
2017-11-17T11:02:07.624Z,85.7
2017-11-17T11:03:09.021Z,85.2
2017-11-17T11:04:10.424Z,85.0
2017-11-17T11:05:11.941Z,85.3
2017-11-17T11:06:13.347Z,85.1
2017-11-17T11:07:14.746Z,85.4
2017-11-17T11:08:16.146Z,84.6
2017-11-17T11:09:17.558Z,84.5
2017-11-17T11:10:18.963Z,84.1
2017-11-17T11:11:20.398Z,84.5
2017-11-17T11:12:21.797Z,83.9
2017-11-17T11:13:23.196Z,84.0
2017-11-17T11:14:24.604Z,83.5
2017-11-17T11:15:26.019Z,83.3
2017-11-17T11:16:27.432Z,82.9
2017-11-17T11:17:28.880Z,82.7
2017-11-17T11:18:30.280Z,82.7
2017-11-17T11:19:31.684Z,82.7
2017-11-17T11:20:33.113Z,82.8
2017-11-17T11:21:34.514Z,82.1
2017-11-17T11:22:35.915Z,81.6
2017-11-17T11:23:37.312Z,81.8
2017-11-17T11:24:38.723Z,81.6
2017-11-17T11:25:40.130Z,81.6
2017-11-17T11:26:41.548Z,81.4
2017-11-17T11:27:42.935Z,81.2
2017-11-17T11:28:44.339Z,81.1
2017-11-17T11:29:45.746Z,81.3
2017-11-17T11:30:47.144Z,80.6
2017-11-17T11:31:48.556Z,80.7
2017-11-17T11:32:50.006Z,80.6
2017-11-17T11:33:51.504Z,80.4
2017-11-17T11:34:52.915Z,80.1
2017-11-17T11:35:54.327Z,79.2
2017-11-17T11:36:55.737Z,78.9
2017-11-17T11:37:57.135Z,78.9
2017-11-17T11:38:58.534Z,78.7
2017-11-17T11:39:59.931Z,78.8
2017-11-17T11:41:01.334Z,78.4
2017-11-17T11:42:02.729Z,78.6
2017-11-17T11:43:04.127Z,78.5
2017-11-17T11:44:05.544Z,78.9
2017-11-17T11:45:06.973Z,78.5
2017-11-17T11:46:08.354Z,78.5
2017-11-17T11:47:09.796Z,78.4
2017-11-17T11:48:11.162Z,78.7
2017-11-17T11:49:12.554Z,78.6
2017-11-17T11:50:13.958Z,78.5
2017-11-17T11:51:15.394Z,78.2
2017-11-17T11:52:16.795Z,77.9
2017-11-17T11:53:18.194Z,77.9
2017-11-17T11:54:19.601Z,78.1
2017-11-17T11:55:21.005Z,77.5
2017-11-17T11:56:22.421Z,77.3
2017-11-17T11:57:23.817Z,76.0
2017-11-17T11:58:25.506Z,75.4
2017-11-17T11:59:26.933Z,75.3
2017-11-17T12:00:28.332Z,75.2
2017-11-17T12:01:29.745Z,75.4
2017-11-17T12:02:31.287Z,75.0
2017-11-17T12:03:32.701Z,74.5
2017-11-17T12:04:34.645Z,74.8
2017-11-17T12:05:36.025Z,75.3
2017-11-17T12:06:37.454Z,74.8
2017-11-17T12:07:38.863Z,74.7
2017-11-17T12:08:40.304Z,74.4
2017-11-17T12:09:41.702Z,74.3
2017-11-17T12:10:43.104Z,74.4
2017-11-17T12:11:44.505Z,73.6
2017-11-17T12:12:45.903Z,73.2
2017-11-17T12:13:47.657Z,72.9
2017-11-17T12:14:49.067Z,72.8
2017-11-17T12:15:50.539Z,73.4
2017-11-17T12:16:51.936Z,72.4
2017-11-17T12:17:53.343Z,73.4
2017-11-17T12:18:54.739Z,73.0
2017-11-17T12:19:56.378Z,72.7
2017-11-17T12:20:57.822Z,72.3
2017-11-17T12:21:59.225Z,71.8
2017-11-17T12:23:00.625Z,71.9
2017-11-17T12:24:02.033Z,71.5
2017-11-17T12:25:03.452Z,72.4
2017-11-17T12:26:04.858Z,72.1
2017-11-17T12:27:06.291Z,72.2
2017-11-17T12:28:07.687Z,72.4
2017-11-17T12:29:09.089Z,72.2
2017-11-17T12:30:10.488Z,71.8
2017-11-17T12:31:11.889Z,71.6
2017-11-17T12:32:13.320Z,71.5
2017-11-17T12:33:14.735Z,71.6
2017-11-17T12:34:16.142Z,71.7
2017-11-17T12:35:17.534Z,71.4
2017-11-17T12:36:18.945Z,71.5
2017-11-17T12:37:20.346Z,71.2
2017-11-17T12:38:21.751Z,70.8
2017-11-17T12:39:23.161Z,71.0
2017-11-17T12:40:24.561Z,70.9
2017-11-17T12:41:26.054Z,70.7
2017-11-17T12:42:27.450Z,71.0
2017-11-17T12:43:28.850Z,70.8
2017-11-17T12:44:30.257Z,70.8
2017-11-17T12:45:31.658Z,71.2
2017-11-17T12:46:33.063Z,71.7
2017-11-17T12:47:34.471Z,71.2
2017-11-17T12:48:35.875Z,70.8
2017-11-17T12:49:37.298Z,70.6
2017-11-17T12:50:38.699Z,70.6
2017-11-17T12:51:40.101Z,70.7
2017-11-17T12:52:41.512Z,71.1
2017-11-17T12:53:42.910Z,70.6
2017-11-17T12:54:44.315Z,71.0
2017-11-17T12:55:45.714Z,71.0
2017-11-17T12:56:47.110Z,71.1
2017-11-17T12:57:48.511Z,70.8
2017-11-17T12:58:49.911Z,70.5
2017-11-17T12:59:51.313Z,71.2
2017-11-17T13:00:52.871Z,70.9
2017-11-17T13:01:54.270Z,70.9
2017-11-17T13:02:55.733Z,70.4
2017-11-17T13:03:57.122Z,69.7
2017-11-17T13:04:58.746Z,69.7
2017-11-17T13:06:00.154Z,69.7
2017-11-17T13:07:01.563Z,69.8
2017-11-17T13:08:03.099Z,69.6
2017-11-17T13:09:04.498Z,70.1
2017-11-17T13:10:05.933Z,70.2
2017-11-17T13:11:07.364Z,70.6
2017-11-17T13:12:08.771Z,70.1
2017-11-17T13:13:10.374Z,70.6
2017-11-17T13:14:11.739Z,70.4
2017-11-17T13:15:13.259Z,70.3
2017-11-17T13:16:14.720Z,70.2
2017-11-17T13:17:16.137Z,70.7
2017-11-17T13:18:17.999Z,70.6
2017-11-17T13:19:19.396Z,70.6
2017-11-17T13:20:20.815Z,70.3
2017-11-17T13:21:22.218Z,70.3
2017-11-17T13:22:23.620Z,69.3
2017-11-17T13:23:25.021Z,68.5
2017-11-17T13:24:26.424Z,68.0
2017-11-17T13:25:27.819Z,67.2
2017-11-17T13:26:29.218Z,67.5
2017-11-17T13:27:30.763Z,67.5
2017-11-17T13:28:32.155Z,67.1
2017-11-17T13:29:33.562Z,67.3
2017-11-17T13:30:35.132Z,66.5
2017-11-17T13:31:36.536Z,66.4
2017-11-17T13:32:37.978Z,66.6
2017-11-17T13:33:39.721Z,67.8
2017-11-17T13:34:41.103Z,68.2
2017-11-17T13:35:42.541Z,68.1
2017-11-17T13:36:43.996Z,68.5
2017-11-17T13:37:45.400Z,68.8